KFTW/FTW METAR and TAF weather

Enter ICAO airport designator
Station Type Date Time Source
KFTW METAR 2020/09/19 05:53 UTC NOAA

KFTW 190553Z AUTO 03006KT 8SM CLR 21/17 A3013 RMK AO2 SLP194 T02110172 10267 20211 402890194 50004


Station Type Date Time Source
KFTW Decoded METAR 2020/09/19 05:53 UTC NOAA

FORT WORTH MEACHAM INTERNATIONAL ., TX, United States (KFTW) 32-50N 097-22W 214M
Sep 19, 2020 - 01:53 AM EDT / 2020.09.19 0553 UTC
Wind: from the NNE (030 degrees) at 7 MPH (6 KT):0
Visibility: 8 mile(s):0
Sky conditions: clear
Temperature: 70.0 F (21.1 C)
Dew Point: 63.0 F (17.2 C)
Relative Humidity: 78%
Pressure (altimeter): 30.13 in. Hg (1020 hPa)
Pressure tendency: 0.01 inches (0.4 hPa) higher than three hours ago
ob: KFTW 190553Z AUTO 03006KT 8SM CLR 21/17 A3013 RMK AO2 SLP194 T02110172 10267 20211 402890194 50004
cycle: 6

Station Type Date Time Source
KFTW TAF 2020/09/19 06:27 UTC NOAA

TAF KFTW 190525Z 1906/2006 05011KT P6SM SKC

Example: see airport list